createdAt,value
2018-07-31T04:10:04.326Z,60.80
2018-07-31T04:12:33.492Z,60.31
2018-07-31T04:15:02.607Z,60.27
2018-07-31T04:17:36.016Z,60.81
2018-07-31T04:20:05.445Z,60.62
2018-07-31T04:22:35.203Z,59.89
2018-07-31T04:25:04.356Z,59.19
2018-07-31T04:27:34.008Z,59.11
2018-07-31T04:30:04.225Z,58.56
2018-07-31T04:32:33.259Z,59.94
2018-07-31T04:35:02.663Z,58.84
2018-07-31T04:37:31.854Z,59.17
2018-07-31T04:40:00.956Z,58.79
2018-07-31T04:42:30.975Z,58.65
2018-07-31T04:45:00.153Z,58.79
2018-07-31T04:47:29.481Z,57.99
2018-07-31T04:50:04.655Z,57.85
2018-07-31T04:52:34.288Z,58.14
2018-07-31T04:55:03.742Z,58.42
2018-07-31T04:57:34.112Z,58.09
2018-07-31T05:00:03.790Z,58.25
2018-07-31T05:02:32.896Z,57.67
2018-07-31T05:05:01.989Z,56.93
2018-07-31T05:07:31.143Z,57.42
2018-07-31T05:10:00.214Z,57.52
2018-07-31T05:12:29.961Z,57.29
2018-07-31T05:15:09.302Z,56.14
2018-07-31T05:30:38.614Z,55.74
2018-07-31T05:33:12.269Z,55.32
2018-07-31T05:35:42.235Z,54.43
2018-07-31T05:38:13.307Z,53.95
2018-07-31T05:40:46.225Z,53.61
2018-07-31T05:43:15.276Z,53.81
2018-07-31T05:45:44.351Z,53.59
2018-07-31T05:48:14.013Z,53.30
2018-07-31T05:50:43.207Z,53.33
2018-07-31T05:53:12.424Z,52.90
2018-07-31T05:55:41.515Z,52.84
2018-07-31T05:58:11.212Z,52.18
2018-07-31T06:00:44.109Z,51.77
2018-07-31T06:03:14.588Z,52.20
2018-07-31T06:05:44.035Z,51.41
2018-07-31T06:17:58.223Z,50.20
2018-07-31T06:20:27.278Z,50.09
2018-07-31T06:22:56.471Z,49.23
2018-07-31T06:25:33.921Z,49.91
2018-07-31T06:28:03.091Z,50.45
2018-07-31T06:30:32.781Z,50.54
2018-07-31T06:33:01.934Z,49.57
2018-07-31T06:35:31.192Z,48.76
2018-07-31T06:38:00.321Z,48.44
2018-07-31T06:40:29.498Z,48.65
2018-07-31T06:42:58.583Z,47.95
2018-07-31T06:45:27.783Z,47.62
2018-07-31T06:47:56.837Z,47.09
2018-07-31T06:50:26.699Z,46.93
2018-07-31T06:52:55.835Z,46.77
2018-07-31T06:55:25.139Z,46.13
2018-07-31T06:57:54.283Z,46.49
2018-07-31T07:00:23.355Z,46.41
2018-07-31T07:02:52.522Z,45.75
2018-07-31T07:05:25.928Z,45.75
2018-07-31T07:07:55.193Z,45.86
2018-07-31T07:10:24.303Z,45.79
2018-07-31T07:12:53.527Z,45.78
2018-07-31T07:15:22.698Z,46.00
2018-07-31T07:17:52.519Z,44.73
2018-07-31T07:20:21.628Z,43.71
2018-07-31T07:22:50.707Z,44.38
2018-07-31T07:25:19.797Z,44.30
2018-07-31T07:27:48.937Z,44.13
2018-07-31T07:30:18.590Z,44.00
2018-07-31T07:32:47.743Z,43.73
2018-07-31T07:35:16.870Z,43.51
2018-07-31T07:37:46.018Z,43.55
2018-07-31T07:40:15.470Z,43.73
2018-07-31T07:42:44.834Z,43.54
2018-07-31T07:45:13.884Z,43.54
2018-07-31T07:47:43.009Z,42.38
2018-07-31T07:50:12.231Z,42.56
2018-07-31T07:52:42.793Z,42.90
2018-07-31T07:55:16.001Z,42.25
2018-07-31T07:57:45.231Z,42.59
2018-07-31T08:00:14.341Z,42.31
2018-07-31T08:02:43.515Z,41.55
2018-07-31T08:05:13.138Z,41.85
2018-07-31T08:07:42.476Z,41.52
2018-07-31T08:10:11.816Z,40.41
2018-07-31T08:12:41.076Z,38.62
2018-07-31T08:15:10.346Z,38.42
2018-07-31T08:17:40.103Z,39.04
2018-07-31T08:20:09.263Z,39.26
2018-07-31T08:22:39.324Z,37.77
2018-07-31T08:25:08.635Z,38.11
2018-07-31T08:27:38.014Z,36.57
2018-07-31T08:30:07.867Z,38.51
2018-07-31T08:32:37.776Z,36.53
2018-07-31T08:35:15.856Z,36.91
2018-07-31T08:37:45.561Z,37.52
2018-07-31T08:40:14.909Z,37.34
2018-07-31T08:42:44.734Z,37.84
2018-07-31T08:45:13.973Z,37.38
2018-07-31T08:47:43.579Z,36.85
2018-07-31T08:50:12.688Z,36.22
2018-07-31T08:52:43.709Z,34.85
2018-07-31T08:55:13.430Z,35.21
2018-07-31T08:57:42.787Z,34.84
2018-07-31T09:00:11.900Z,36.08
2018-07-31T09:02:41.092Z,36.13
2018-07-31T09:05:10.725Z,36.43
2018-07-31T09:07:39.919Z,35.26
2018-07-31T09:10:09.795Z,35.08
2018-07-31T09:12:39.585Z,33.32
2018-07-31T09:15:09.803Z,35.41
2018-07-31T09:17:39.419Z,35.04
2018-07-31T09:20:08.529Z,35.45
2018-07-31T09:22:37.769Z,33.45
2018-07-31T09:25:15.620Z,32.86
2018-07-31T09:27:44.765Z,33.48
2018-07-31T09:30:13.969Z,34.65
2018-07-31T09:32:48.439Z,32.16
2018-07-31T09:35:17.569Z,31.81
2018-07-31T09:37:46.764Z,29.43
2018-07-31T09:40:16.122Z,28.28
2018-07-31T09:42:45.577Z,29.34
2018-07-31T09:45:16.170Z,29.33
2018-07-31T09:47:45.417Z,27.49
2018-07-31T09:50:14.553Z,27.02
2018-07-31T09:52:44.174Z,28.17
2018-07-31T09:55:13.345Z,29.61
2018-07-31T09:57:44.832Z,28.13
2018-07-31T10:00:19.065Z,31.21
2018-07-31T10:02:49.346Z,28.02
2018-07-31T10:05:18.540Z,29.40
2018-07-31T10:07:47.858Z,31.16
2018-07-31T10:10:17.229Z,29.32
2018-07-31T10:12:46.321Z,29.59
2018-07-31T10:15:15.516Z,29.87
2018-07-31T10:17:44.764Z,29.40
2018-07-31T10:20:14.617Z,30.09
2018-07-31T10:22:45.045Z,30.32
2018-07-31T10:25:14.801Z,29.87
2018-07-31T10:27:43.885Z,30.35
2018-07-31T10:30:13.043Z,31.13
2018-07-31T10:32:43.606Z,30.85
2018-07-31T10:35:12.837Z,29.35
2018-07-31T10:37:42.067Z,29.48
2018-07-31T10:40:11.393Z,30.72
2018-07-31T10:42:40.708Z,30.31
2018-07-31T10:45:10.040Z,29.05
2018-07-31T10:47:39.916Z,30.33
2018-07-31T10:50:14.029Z,30.35
2018-07-31T10:52:46.966Z,30.58
2018-07-31T10:55:16.833Z,29.14
2018-07-31T10:57:45.868Z,29.03
2018-07-31T11:00:14.962Z,28.90
2018-07-31T11:02:44.206Z,29.26
2018-07-31T11:05:13.888Z,28.81
2018-07-31T11:07:43.630Z,28.61
2018-07-31T11:10:14.257Z,28.24
2018-07-31T11:12:44.022Z,29.07
2018-07-31T11:15:13.177Z,29.99
2018-07-31T11:17:42.392Z,28.98
2018-07-31T11:20:11.697Z,28.61
2018-07-31T11:22:42.081Z,28.50
2018-07-31T11:25:13.141Z,28.46
2018-07-31T11:27:43.165Z,29.44
2018-07-31T11:30:12.323Z,28.56
2018-07-31T11:32:42.198Z,28.21
2018-07-31T11:35:11.401Z,28.90
2018-07-31T11:37:40.553Z,28.61
2018-07-31T11:40:09.911Z,29.37
2018-07-31T11:42:39.433Z,28.78
2018-07-31T11:45:08.528Z,28.51
2018-07-31T11:47:37.784Z,28.74
2018-07-31T11:50:14.618Z,29.12
2018-07-31T11:52:43.739Z,28.82
2018-07-31T11:55:12.887Z,28.52
2018-07-31T11:57:42.187Z,28.54
2018-07-31T12:00:12.603Z,28.49
2018-07-31T12:02:41.788Z,28.65
2018-07-31T12:05:10.954Z,27.77
2018-07-31T12:07:40.180Z,28.15
2018-07-31T12:10:09.339Z,28.26
2018-07-31T12:12:38.592Z,28.18
2018-07-31T12:15:08.041Z,27.95
2018-07-31T12:17:38.302Z,28.01
2018-07-31T12:20:07.630Z,28.27
2018-07-31T12:22:36.807Z,29.20
2018-07-31T12:25:06.764Z,28.61
2018-07-31T12:30:17.185Z,28.61
2018-07-31T12:32:46.399Z,28.76
2018-07-31T12:35:16.358Z,28.59
2018-07-31T12:37:45.736Z,27.96
2018-07-31T12:40:15.930Z,28.06
2018-07-31T12:42:45.104Z,27.39
2018-07-31T12:45:14.482Z,27.96
2018-07-31T12:47:44.229Z,28.10
2018-07-31T12:50:13.538Z,28.17
2018-07-31T12:52:42.678Z,28.22
2018-07-31T12:55:17.200Z,27.29
2018-07-31T12:57:46.644Z,28.09
2018-07-31T13:00:15.708Z,28.36
2018-07-31T13:02:44.841Z,27.54
2018-07-31T13:05:14.972Z,27.64
2018-07-31T13:07:44.152Z,28.21
2018-07-31T13:10:13.787Z,27.97
2018-07-31T13:12:43.172Z,27.64
2018-07-31T13:15:12.438Z,27.37
2018-07-31T13:17:41.568Z,27.29
2018-07-31T13:20:10.713Z,26.88
2018-07-31T13:22:40.714Z,26.56
2018-07-31T13:25:10.045Z,26.53
2018-07-31T13:27:39.199Z,26.99
2018-07-31T13:30:08.564Z,26.34
2018-07-31T13:32:38.122Z,100.00
2018-07-31T14:00:29.560Z,100.00
2018-07-31T14:02:58.883Z,100.00
2018-07-31T23:28:07.137Z,49.60
2018-07-31T23:30:36.490Z,49.59
2018-07-31T23:33:05.611Z,49.89
2018-07-31T23:35:34.773Z,49.32
2018-07-31T23:38:03.841Z,49.31
2018-07-31T23:40:32.939Z,49.97
2018-07-31T23:43:02.997Z,50.58
2018-07-31T23:45:32.081Z,51.31
2018-07-31T23:48:01.217Z,50.48
2018-07-31T23:50:30.286Z,49.67
2018-07-31T23:52:59.392Z,50.48
2018-07-31T23:55:28.478Z,50.75
2018-07-31T23:57:57.605Z,49.86
